Time,TemperatureF,DewpointF,PressureIn,WindDirection,WindDirectionDegrees,WindSpeedMPH,WindSpeedGustMPH,Humidity,HourlyPrecipIn,Conditions,Clouds,dailyrainin,SoftwareType,DateUTC
2013-09-21 00:01:00,67.1,65.8,29.88,WSW,242,0.0,2.0,96,0.17,,,0.27,meteohub,2013-09-21 04:01:00,
2013-09-21 00:06:00,66.9,65.7,29.88,SW,222,0.0,2.0,96,0.17,,,0.28,meteohub,2013-09-21 04:06:00,
2013-09-21 00:11:00,66.9,65.7,29.88,SW,215,0.0,2.0,96,0.21,,,0.29,meteohub,2013-09-21 04:11:00,
2013-09-21 00:17:00,66.9,65.7,29.88,SSW,213,0.0,2.0,96,0.20,,,0.32,meteohub,2013-09-21 04:17:00,
2013-09-21 00:21:00,66.9,66.0,29.88,SSW,213,0.0,2.0,97,0.23,,,0.35,meteohub,2013-09-21 04:21:00,
2013-09-21 00:26:00,66.9,66.0,29.88,SW,222,0.0,1.0,97,0.25,,,0.37,meteohub,2013-09-21 04:26:00,
2013-09-21 00:32:00,66.9,66.0,29.88,SW,222,0.0,1.0,97,0.14,,,0.39,meteohub,2013-09-21 04:32:00,
2013-09-21 00:37:00,66.9,66.0,29.88,North,-999,-999.0,0.0,97,0.14,,,0.39,meteohub,2013-09-21 04:37:00,
2013-09-21 10:45:00,64.8,58.5,29.91,SW,224,2.0,-999.0,80,0.00,,,0.39,meteohub,2013-09-21 14:45:00,
2013-09-21 10:50:00,64.8,58.5,29.91,WNW,283,0.0,4.0,80,0.00,,,0.39,meteohub,2013-09-21 14:50:00,
2013-09-21 10:55:00,64.8,58.5,29.91,WNW,283,0.0,4.0,80,0.00,,,0.39,meteohub,2013-09-21 14:55:00,
2013-09-21 11:00:00,64.8,58.5,29.91,North,-999,-999.0,3.0,80,0.00,,,0.39,meteohub,2013-09-21 15:00:00,
2013-09-21 11:19:00,65.7,58.3,29.91,North,-999,-999.0,-999.0,77,0.00,,,0.39,meteohub,2013-09-21 15:19:00,
2013-09-21 11:24:00,65.7,58.3,29.91,North,-999,-999.0,-999.0,77,0.00,,,0.39,meteohub,2013-09-21 15:24:00,
2013-09-21 11:29:00,65.7,58.3,29.91,ESE,110,0.0,-999.0,77,0.00,,,0.39,meteohub,2013-09-21 15:29:00,
2013-09-21 11:34:00,65.7,58.3,29.91,SW,236,1.0,1.0,77,0.00,,,0.39,meteohub,2013-09-21 15:34:00,
2013-09-21 11:39:00,65.8,58.5,29.91,North,-999,-999.0,1.0,77,0.00,,,0.39,meteohub,2013-09-21 15:39:00,
2013-09-21 11:44:00,65.8,57.7,29.91,SSW,209,0.0,1.0,75,0.00,,,0.39,meteohub,2013-09-21 15:44:00,
2013-09-21 11:49:00,66.0,57.9,29.91,SSE,162,0.0,2.0,75,0.00,,,0.39,meteohub,2013-09-21 15:49:00,
2013-09-21 11:54:00,66.0,57.9,29.91,SSE,162,0.0,4.0,75,0.00,,,0.39,meteohub,2013-09-21 15:54:00,
2013-09-21 11:59:00,66.0,57.9,29.91,North,-999,-999.0,4.0,75,0.00,,,0.39,meteohub,2013-09-21 15:59:00,
2013-09-21 12:21:00,66.9,54.9,29.91,North,-999,-999.0,-999.0,65,0.00,,,0.39,meteohub,2013-09-21 16:21:00,
2013-09-21 12:26:00,66.9,54.0,29.91,SSW,201,0.0,-999.0,63,0.00,,,0.39,meteohub,2013-09-21 16:26:00,
2013-09-21 12:31:00,67.3,54.3,29.91,South,171,1.0,4.0,63,0.00,,,0.39,meteohub,2013-09-21 16:31:00,
2013-09-21 12:36:00,67.5,54.0,29.91,SSW,193,0.0,5.0,62,0.00,,,0.39,meteohub,2013-09-21 16:36:00,
2013-09-21 12:41:00,67.3,53.8,29.91,ENE,64,0.0,5.0,62,0.00,,,0.39,meteohub,2013-09-21 16:41:00,
2013-09-21 12:46:00,67.1,54.1,29.91,SSE,160,1.0,6.0,63,0.00,,,0.39,meteohub,2013-09-21 16:46:00,
2013-09-21 12:51:00,67.5,54.5,29.91,NNW,341,1.0,6.0,63,0.00,,,0.39,meteohub,2013-09-21 16:51:00,
2013-09-21 12:57:00,67.6,54.7,29.91,NE,54,0.0,6.0,63,0.00,,,0.39,meteohub,2013-09-21 16:57:00,
2013-09-21 13:02:00,67.6,54.7,29.91,NE,54,0.0,4.0,63,0.00,,,0.39,meteohub,2013-09-21 17:02:00,
2013-09-21 13:07:00,67.6,54.7,29.91,North,-999,-999.0,4.0,63,0.00,,,0.39,meteohub,2013-09-21 17:07:00,
2013-09-21 13:59:00,69.3,50.4,29.91,SE,139,0.0,-999.0,51,0.00,,,0.39,meteohub,2013-09-21 17:59:00,
2013-09-21 14:04:00,69.3,49.8,29.91,SE,127,0.0,2.0,50,0.00,,,0.39,meteohub,2013-09-21 18:04:00,
2013-09-21 14:09:00,69.4,50.5,29.90,WSW,246,0.0,2.0,51,0.00,,,0.39,meteohub,2013-09-21 18:09:00,
2013-09-21 14:14:00,70.0,50.0,29.90,NNE,21,1.0,2.0,49,0.00,,,0.39,meteohub,2013-09-21 18:14:00,
2013-09-21 14:19:00,69.6,49.6,29.90,WSW,254,1.0,3.0,49,0.00,,,0.39,meteohub,2013-09-21 18:19:00,
2013-09-21 14:24:00,69.8,49.8,29.90,NNW,344,1.0,3.0,49,0.00,,,0.39,meteohub,2013-09-21 18:24:00,
2013-09-21 14:29:00,70.0,48.7,29.90,SE,142,3.0,4.0,47,0.00,,,0.39,meteohub,2013-09-21 18:29:00,
2013-09-21 14:34:00,69.8,49.8,29.90,SSW,194,1.0,4.0,49,0.00,,,0.39,meteohub,2013-09-21 18:34:00,
2013-09-21 14:39:00,70.3,50.4,29.90,SW,230,3.0,3.0,49,0.00,,,0.39,meteohub,2013-09-21 18:39:00,
2013-09-21 14:44:00,70.5,50.4,29.90,SSW,200,2.0,3.0,49,0.00,,,0.39,meteohub,2013-09-21 18:44:00,
2013-09-21 14:50:00,70.5,50.4,29.89,SSW,200,2.0,3.0,49,0.00,,,0.39,meteohub,2013-09-21 18:50:00,
2013-09-21 14:55:00,70.5,50.4,29.89,North,-999,-999.0,2.0,49,0.00,,,0.39,meteohub,2013-09-21 18:55:00,
2013-09-21 15:18:00,72.0,51.3,29.89,North,-999,-999.0,-999.0,48,0.00,,,0.39,meteohub,2013-09-21 19:18:00,
2013-09-21 15:23:00,72.1,50.7,29.89,WSW,246,0.0,-999.0,47,0.00,,,0.39,meteohub,2013-09-21 19:23:00,
2013-09-21 15:28:00,72.0,50.0,29.89,SW,216,0.0,-999.0,46,0.00,,,0.39,meteohub,2013-09-21 19:28:00,
2013-09-21 15:33:00,72.5,52.3,29.89,East,80,3.0,3.0,49,0.00,,,0.39,meteohub,2013-09-21 19:33:00,
2013-09-21 15:38:00,72.9,52.5,29.89,NNE,33,2.0,5.0,49,0.00,,,0.39,meteohub,2013-09-21 19:38:00,
2013-09-21 15:43:00,72.3,52.2,29.89,SSE,151,1.0,5.0,49,0.00,,,0.39,meteohub,2013-09-21 19:43:00,
2013-09-21 15:48:00,72.3,52.2,29.89,WNW,284,0.0,4.0,49,0.00,,,0.39,meteohub,2013-09-21 19:48:00,
2013-09-21 15:53:00,72.3,52.2,29.89,WNW,284,0.0,4.0,49,0.00,,,0.39,meteohub,2013-09-21 19:53:00,
2013-09-21 15:58:00,72.0,49.5,29.89,North,-999,-999.0,4.0,45,0.00,,,0.39,meteohub,2013-09-21 19:58:00,
2013-09-21 16:03:00,72.7,50.7,29.89,SSW,204,0.0,0.0,46,0.00,,,0.39,meteohub,2013-09-21 20:03:00,
2013-09-21 16:08:00,73.2,51.3,29.89,SSE,163,0.0,1.0,46,0.00,,,0.39,meteohub,2013-09-21 20:08:00,
2013-09-21 16:13:00,74.1,52.0,29.89,SW,219,1.0,2.0,46,0.00,,,0.39,meteohub,2013-09-21 20:13:00,
2013-09-21 16:18:00,73.8,51.6,29.89,West,260,0.0,3.0,46,0.00,,,0.39,meteohub,2013-09-21 20:18:00,
2013-09-21 16:23:00,73.6,51.4,29.89,SW,218,0.0,5.0,46,0.00,,,0.39,meteohub,2013-09-21 20:23:00,
2013-09-21 16:28:00,73.6,51.4,29.89,North,-999,-999.0,5.0,46,0.00,,,0.39,meteohub,2013-09-21 20:28:00,
2013-09-21 16:33:00,73.6,51.4,29.89,North,-999,-999.0,5.0,46,0.00,,,0.39,meteohub,2013-09-21 20:33:00,
2013-09-21 18:35:00,72.9,48.4,29.91,North,-999,-999.0,-999.0,42,0.00,,,0.39,meteohub,2013-09-21 22:35:00,
2013-09-21 18:40:00,72.9,48.4,29.91,North,-999,-999.0,-999.0,42,0.00,,,0.39,meteohub,2013-09-21 22:40:00,
2013-09-21 18:45:00,72.9,48.4,29.91,North,-999,-999.0,-999.0,42,0.00,,,0.39,meteohub,2013-09-21 22:45:00,
2013-09-21 18:50:00,72.9,48.4,29.91,North,-999,-999.0,-999.0,42,0.00,,,0.39,meteohub,2013-09-21 22:50:00,
2013-09-21 19:08:00,69.3,47.7,29.91,North,-999,-999.0,-999.0,46,0.00,,,0.39,meteohub,2013-09-21 23:08:00,
2013-09-21 19:13:00,69.1,47.5,29.91,North,-999,-999.0,-999.0,46,0.00,,,0.39,meteohub,2013-09-21 23:13:00,
2013-09-21 19:18:00,68.7,47.7,29.91,ESE,112,1.0,-999.0,47,0.00,,,0.39,meteohub,2013-09-21 23:18:00,
2013-09-21 19:23:00,68.2,47.1,29.91,SE,132,0.0,2.0,47,0.00,,,0.39,meteohub,2013-09-21 23:23:00,
2013-09-21 19:28:00,67.6,47.8,29.92,ENE,77,1.0,2.0,49,0.00,,,0.39,meteohub,2013-09-21 23:28:00,
2013-09-21 19:33:00,67.3,47.5,29.92,SSW,196,0.0,2.0,49,0.00,,,0.39,meteohub,2013-09-21 23:33:00,
2013-09-21 19:38:00,66.7,48.0,29.92,SSW,197,0.0,1.0,51,0.00,,,0.39,meteohub,2013-09-21 23:38:00,
2013-09-21 19:43:00,66.2,47.5,29.91,SSW,195,0.0,1.0,51,0.00,,,0.39,meteohub,2013-09-21 23:43:00,
2013-09-21 19:48:00,66.0,47.3,29.92,SW,224,0.0,1.0,51,0.00,,,0.39,meteohub,2013-09-21 23:48:00,
2013-09-21 19:53:00,65.5,47.8,29.92,North,-999,-999.0,1.0,53,0.00,,,0.39,meteohub,2013-09-21 23:53:00,
2013-09-21 19:58:00,64.9,48.4,29.92,South,184,0.0,1.0,55,0.00,,,0.39,meteohub,2013-09-21 23:58:00,
2013-09-21 20:03:00,64.8,48.2,29.92,South,184,0.0,0.0,55,0.00,,,0.39,meteohub,2013-09-22 00:03:00,
2013-09-21 20:08:00,64.2,47.7,29.92,South,184,0.0,0.0,55,0.00,,,0.00,meteohub,2013-09-22 00:08:00,
2013-09-21 20:13:00,63.7,48.6,29.92,South,184,0.0,0.0,58,0.00,,,0.00,meteohub,2013-09-22 00:13:00,
2013-09-21 20:18:00,63.1,48.2,29.92,South,184,0.0,0.0,58,0.00,,,0.00,meteohub,2013-09-22 00:18:00,
2013-09-21 20:23:00,62.8,48.7,29.93,South,184,0.0,0.0,60,0.00,,,0.00,meteohub,2013-09-22 00:23:00,
2013-09-21 20:28:00,62.8,48.7,29.93,South,184,0.0,0.0,60,0.00,,,0.00,meteohub,2013-09-22 00:28:00,
2013-09-21 20:33:00,62.1,48.0,29.93,South,184,0.0,0.0,60,0.00,,,0.00,meteohub,2013-09-22 00:33:00,
2013-09-21 20:38:00,61.5,48.7,29.93,South,184,0.0,0.0,63,0.00,,,0.00,meteohub,2013-09-22 00:38:00,
2013-09-21 20:43:00,61.3,49.5,29.93,South,184,0.0,0.0,65,0.00,,,0.00,meteohub,2013-09-22 00:43:00,
2013-09-21 20:48:00,60.6,49.3,29.93,South,184,0.0,0.0,66,0.00,,,0.00,meteohub,2013-09-22 00:48:00,
2013-09-21 20:53:00,60.4,49.1,29.93,South,184,0.0,0.0,66,0.00,,,0.00,meteohub,2013-09-22 00:53:00,
2013-09-21 20:58:00,60.1,49.1,29.94,South,184,0.0,0.0,67,0.00,,,0.00,meteohub,2013-09-22 00:58:00,
2013-09-21 21:03:00,60.1,49.1,29.94,South,184,0.0,0.0,67,0.00,,,0.00,meteohub,2013-09-22 01:03:00,
2013-09-21 21:08:00,59.9,49.3,29.94,South,184,0.0,0.0,68,0.00,,,0.00,meteohub,2013-09-22 01:08:00,
2013-09-21 21:13:00,59.9,49.3,29.94,South,184,0.0,0.0,68,0.00,,,0.00,meteohub,2013-09-22 01:13:00,
2013-09-21 21:18:00,59.9,49.3,29.94,North,-999,-999.0,0.0,68,0.00,,,0.00,meteohub,2013-09-22 01:18:00,